sensor_id;sensor_type;location;lat;lon;timestamp;temperature;humidity
11035;DHT22;5571;48.110;-1.706;2023-12-07T00:00:26;5.70;99.90
11035;DHT22;5571;48.110;-1.706;2023-12-07T00:02:52;5.80;99.90
11035;DHT22;5571;48.110;-1.706;2023-12-07T00:05:17;5.80;99.90
11035;DHT22;5571;48.110;-1.706;2023-12-07T00:07:43;5.80;99.90
11035;DHT22;5571;48.110;-1.706;2023-12-07T00:10:08;5.80;99.90
11035;DHT22;5571;48.110;-1.706;2023-12-07T00:12:34;5.80;99.90
11035;DHT22;5571;48.110;-1.706;2023-12-07T00:15:00;5.80;99.90
11035;DHT22;5571;48.110;-1.706;2023-12-07T00:17:25;5.80;99.90
11035;DHT22;5571;48.110;-1.706;2023-12-07T00:19:51;5.80;99.90
11035;DHT22;5571;48.110;-1.706;2023-12-07T00:22:19;5.80;99.90
11035;DHT22;5571;48.110;-1.706;2023-12-07T00:24:45;5.80;99.90
11035;DHT22;5571;48.110;-1.706;2023-12-07T00:27:11;5.70;99.90
11035;DHT22;5571;48.110;-1.706;2023-12-07T00:29:37;5.80;99.90
11035;DHT22;5571;48.110;-1.706;2023-12-07T00:32:04;5.80;99.90
11035;DHT22;5571;48.110;-1.706;2023-12-07T00:34:29;5.80;99.90
11035;DHT22;5571;48.110;-1.706;2023-12-07T00:36:55;5.90;99.90
11035;DHT22;5571;48.110;-1.706;2023-12-07T00:39:21;5.90;99.90
11035;DHT22;5571;48.110;-1.706;2023-12-07T00:41:46;5.90;99.90
11035;DHT22;5571;48.110;-1.706;2023-12-07T00:44:13;5.90;99.90
11035;DHT22;5571;48.110;-1.706;2023-12-07T00:46:40;5.90;99.90
11035;DHT22;5571;48.110;-1.706;2023-12-07T00:49:05;5.90;99.90
11035;DHT22;5571;48.110;-1.706;2023-12-07T00:51:31;5.90;99.90
11035;DHT22;5571;48.110;-1.706;2023-12-07T00:53:57;6.00;99.90
11035;DHT22;5571;48.110;-1.706;2023-12-07T00:56:24;5.90;99.90
11035;DHT22;5571;48.110;-1.706;2023-12-07T00:58:49;6.00;99.90
11035;DHT22;5571;48.110;-1.706;2023-12-07T01:01:15;6.00;99.90
11035;DHT22;5571;48.110;-1.706;2023-12-07T01:03:40;5.90;99.90
11035;DHT22;5571;48.110;-1.706;2023-12-07T01:06:07;6.00;99.90
11035;DHT22;5571;48.110;-1.706;2023-12-07T01:08:32;6.00;99.90
11035;DHT22;5571;48.110;-1.706;2023-12-07T01:10:58;6.00;99.90
11035;DHT22;5571;48.110;-1.706;2023-12-07T01:13:24;6.00;99.90
11035;DHT22;5571;48.110;-1.706;2023-12-07T01:15:50;6.00;99.90
11035;DHT22;5571;48.110;-1.706;2023-12-07T01:18:16;6.00;99.90
11035;DHT22;5571;48.110;-1.706;2023-12-07T01:20:42;6.00;99.90
11035;DHT22;5571;48.110;-1.706;2023-12-07T01:23:08;6.00;99.90
11035;DHT22;5571;48.110;-1.706;2023-12-07T01:25:36;6.00;99.90
11035;DHT22;5571;48.110;-1.706;2023-12-07T01:28:02;6.00;99.90
11035;DHT22;5571;48.110;-1.706;2023-12-07T01:30:27;6.00;99.90
11035;DHT22;5571;48.110;-1.706;2023-12-07T01:32:53;6.00;99.90
11035;DHT22;5571;48.110;-1.706;2023-12-07T01:35:19;6.10;99.90
11035;DHT22;5571;48.110;-1.706;2023-12-07T01:37:44;6.10;99.90
11035;DHT22;5571;48.110;-1.706;2023-12-07T01:40:10;6.10;99.90
11035;DHT22;5571;48.110;-1.706;2023-12-07T01:42:39;6.10;99.90
11035;DHT22;5571;48.110;-1.706;2023-12-07T01:45:05;6.10;99.90
11035;DHT22;5571;48.110;-1.706;2023-12-07T01:47:33;6.10;99.90
11035;DHT22;5571;48.110;-1.706;2023-12-07T01:50:00;6.10;99.90
11035;DHT22;5571;48.110;-1.706;2023-12-07T01:52:29;6.20;99.90
11035;DHT22;5571;48.110;-1.706;2023-12-07T01:54:55;6.20;99.90
11035;DHT22;5571;48.110;-1.706;2023-12-07T01:57:20;6.20;99.90
11035;DHT22;5571;48.110;-1.706;2023-12-07T01:59:47;6.20;99.90
11035;DHT22;5571;48.110;-1.706;2023-12-07T02:02:13;6.20;99.90
11035;DHT22;5571;48.110;-1.706;2023-12-07T02:04:40;6.30;99.90
11035;DHT22;5571;48.110;-1.706;2023-12-07T02:07:06;6.30;99.90
11035;DHT22;5571;48.110;-1.706;2023-12-07T02:09:32;6.30;99.90
11035;DHT22;5571;48.110;-1.706;2023-12-07T02:11:57;6.30;99.90
11035;DHT22;5571;48.110;-1.706;2023-12-07T02:14:23;6.30;99.90
11035;DHT22;5571;48.110;-1.706;2023-12-07T02:16:54;6.30;99.90
11035;DHT22;5571;48.110;-1.706;2023-12-07T02:22:52;6.30;99.90
11035;DHT22;5571;48.110;-1.706;2023-12-07T02:25:19;6.30;99.90
11035;DHT22;5571;48.110;-1.706;2023-12-07T02:27:48;6.30;99.90
11035;DHT22;5571;48.110;-1.706;2023-12-07T02:30:15;6.30;99.90
11035;DHT22;5571;48.110;-1.706;2023-12-07T02:32:42;6.30;99.90
11035;DHT22;5571;48.110;-1.706;2023-12-07T02:35:10;6.30;99.90
11035;DHT22;5571;48.110;-1.706;2023-12-07T02:37:45;6.30;99.90
11035;DHT22;5571;48.110;-1.706;2023-12-07T02:40:12;6.30;99.90
11035;DHT22;5571;48.110;-1.706;2023-12-07T02:42:40;6.40;99.90
11035;DHT22;5571;48.110;-1.706;2023-12-07T02:45:09;6.40;99.90
11035;DHT22;5571;48.110;-1.706;2023-12-07T02:47:35;6.40;99.90
11035;DHT22;5571;48.110;-1.706;2023-12-07T02:50:00;6.40;99.90
11035;DHT22;5571;48.110;-1.706;2023-12-07T02:52:26;6.40;99.90
11035;DHT22;5571;48.110;-1.706;2023-12-07T02:54:52;6.40;99.90
11035;DHT22;5571;48.110;-1.706;2023-12-07T02:57:17;6.40;99.90
11035;DHT22;5571;48.110;-1.706;2023-12-07T02:59:43;6.50;99.90
11035;DHT22;5571;48.110;-1.706;2023-12-07T03:02:08;6.50;99.90
11035;DHT22;5571;48.110;-1.706;2023-12-07T03:04:34;6.50;99.90
11035;DHT22;5571;48.110;-1.706;2023-12-07T03:06:59;6.50;99.90
11035;DHT22;5571;48.110;-1.706;2023-12-07T03:09:25;6.50;99.90
11035;DHT22;5571;48.110;-1.706;2023-12-07T03:11:51;6.50;99.90
11035;DHT22;5571;48.110;-1.706;2023-12-07T03:14:16;6.50;99.90
11035;DHT22;5571;48.110;-1.706;2023-12-07T03:16:42;6.50;99.90
11035;DHT22;5571;48.110;-1.706;2023-12-07T03:19:08;6.50;99.90
11035;DHT22;5571;48.110;-1.706;2023-12-07T03:21:33;6.50;99.90
11035;DHT22;5571;48.110;-1.706;2023-12-07T03:23:59;6.50;99.90
11035;DHT22;5571;48.110;-1.706;2023-12-07T03:26:24;6.50;99.90
11035;DHT22;5571;48.110;-1.706;2023-12-07T03:28:50;6.50;99.90
11035;DHT22;5571;48.110;-1.706;2023-12-07T03:31:16;6.50;99.90
11035;DHT22;5571;48.110;-1.706;2023-12-07T03:33:42;6.50;99.90
11035;DHT22;5571;48.110;-1.706;2023-12-07T03:36:11;6.50;99.90
11035;DHT22;5571;48.110;-1.706;2023-12-07T03:38:37;6.40;99.90
11035;DHT22;5571;48.110;-1.706;2023-12-07T03:41:03;6.40;99.90
11035;DHT22;5571;48.110;-1.706;2023-12-07T03:43:29;6.50;99.90
11035;DHT22;5571;48.110;-1.706;2023-12-07T03:45:55;6.50;99.90
11035;DHT22;5571;48.110;-1.706;2023-12-07T03:48:20;6.40;99.90
11035;DHT22;5571;48.110;-1.706;2023-12-07T03:50:46;6.40;99.90
11035;DHT22;5571;48.110;-1.706;2023-12-07T03:53:12;6.40;99.90
11035;DHT22;5571;48.110;-1.706;2023-12-07T03:55:38;6.40;99.90
11035;DHT22;5571;48.110;-1.706;2023-12-07T03:58:04;6.50;99.90
11035;DHT22;5571;48.110;-1.706;2023-12-07T04:00:31;6.40;99.90
11035;DHT22;5571;48.110;-1.706;2023-12-07T04:02:57;6.50;99.90
11035;DHT22;5571;48.110;-1.706;2023-12-07T04:05:23;6.50;99.90
11035;DHT22;5571;48.110;-1.706;2023-12-07T04:07:48;6.40;99.90
11035;DHT22;5571;48.110;-1.706;2023-12-07T04:10:14;6.50;99.90
11035;DHT22;5571;48.110;-1.706;2023-12-07T04:12:40;6.50;99.90
11035;DHT22;5571;48.110;-1.706;2023-12-07T04:15:06;6.40;99.90
11035;DHT22;5571;48.110;-1.706;2023-12-07T04:17:32;6.40;99.90
11035;DHT22;5571;48.110;-1.706;2023-12-07T04:19:57;6.50;99.90
11035;DHT22;5571;48.110;-1.706;2023-12-07T04:22:23;6.40;99.90
11035;DHT22;5571;48.110;-1.706;2023-12-07T04:24:48;6.40;99.90
11035;DHT22;5571;48.110;-1.706;2023-12-07T04:27:15;6.40;99.90
11035;DHT22;5571;48.110;-1.706;2023-12-07T04:29:40;6.40;99.90
11035;DHT22;5571;48.110;-1.706;2023-12-07T04:32:07;6.40;99.90
11035;DHT22;5571;48.110;-1.706;2023-12-07T04:34:33;6.40;99.90
11035;DHT22;5571;48.110;-1.706;2023-12-07T04:36:59;6.40;99.90
11035;DHT22;5571;48.110;-1.706;2023-12-07T04:39:24;6.40;99.90
11035;DHT22;5571;48.110;-1.706;2023-12-07T04:41:50;6.30;99.90
11035;DHT22;5571;48.110;-1.706;2023-12-07T04:44:16;6.30;99.90
11035;DHT22;5571;48.110;-1.706;2023-12-07T04:46:42;6.30;99.90
11035;DHT22;5571;48.110;-1.706;2023-12-07T04:49:08;6.30;99.90
11035;DHT22;5571;48.110;-1.706;2023-12-07T04:51:34;6.30;99.90
11035;DHT22;5571;48.110;-1.706;2023-12-07T04:53:59;6.30;99.90
11035;DHT22;5571;48.110;-1.706;2023-12-07T04:56:28;6.30;99.90
11035;DHT22;5571;48.110;-1.706;2023-12-07T04:58:53;6.20;99.90
11035;DHT22;5571;48.110;-1.706;2023-12-07T05:01:19;6.20;99.90
11035;DHT22;5571;48.110;-1.706;2023-12-07T05:03:45;6.20;99.90
11035;DHT22;5571;48.110;-1.706;2023-12-07T05:06:11;6.10;99.90
11035;DHT22;5571;48.110;-1.706;2023-12-07T05:08:38;6.10;99.90
11035;DHT22;5571;48.110;-1.706;2023-12-07T05:11:04;6.00;99.90
11035;DHT22;5571;48.110;-1.706;2023-12-07T05:13:30;6.00;99.90
11035;DHT22;5571;48.110;-1.706;2023-12-07T05:15:56;6.10;99.90
11035;DHT22;5571;48.110;-1.706;2023-12-07T05:18:22;6.10;99.90
11035;DHT22;5571;48.110;-1.706;2023-12-07T05:20:48;6.10;99.90
11035;DHT22;5571;48.110;-1.706;2023-12-07T05:23:13;6.00;99.90
11035;DHT22;5571;48.110;-1.706;2023-12-07T05:25:39;6.00;99.90
11035;DHT22;5571;48.110;-1.706;2023-12-07T05:28:05;6.00;99.90
11035;DHT22;5571;48.110;-1.706;2023-12-07T05:30:30;6.00;99.90
11035;DHT22;5571;48.110;-1.706;2023-12-07T05:32:56;6.10;99.90
11035;DHT22;5571;48.110;-1.706;2023-12-07T05:35:21;6.00;99.90
11035;DHT22;5571;48.110;-1.706;2023-12-07T05:37:48;6.00;99.90
11035;DHT22;5571;48.110;-1.706;2023-12-07T05:40:14;6.00;99.90
11035;DHT22;5571;48.110;-1.706;2023-12-07T05:42:41;6.00;99.90
11035;DHT22;5571;48.110;-1.706;2023-12-07T05:45:07;6.00;99.90
11035;DHT22;5571;48.110;-1.706;2023-12-07T05:47:35;5.90;99.90
11035;DHT22;5571;48.110;-1.706;2023-12-07T05:50:00;5.90;99.90
11035;DHT22;5571;48.110;-1.706;2023-12-07T05:52:28;5.90;99.90
11035;DHT22;5571;48.110;-1.706;2023-12-07T05:54:54;5.90;99.90
11035;DHT22;5571;48.110;-1.706;2023-12-07T05:57:20;5.90;99.90
11035;DHT22;5571;48.110;-1.706;2023-12-07T05:59:45;5.90;99.90
11035;DHT22;5571;48.110;-1.706;2023-12-07T06:02:11;5.90;99.90
11035;DHT22;5571;48.110;-1.706;2023-12-07T06:04:37;5.90;99.90
11035;DHT22;5571;48.110;-1.706;2023-12-07T06:07:03;5.90;99.90
11035;DHT22;5571;48.110;-1.706;2023-12-07T06:09:29;5.90;99.90
11035;DHT22;5571;48.110;-1.706;2023-12-07T06:11:55;5.90;99.90
11035;DHT22;5571;48.110;-1.706;2023-12-07T06:14:20;5.90;99.90
11035;DHT22;5571;48.110;-1.706;2023-12-07T06:16:48;5.90;99.90
11035;DHT22;5571;48.110;-1.706;2023-12-07T06:19:14;5.90;99.90
11035;DHT22;5571;48.110;-1.706;2023-12-07T06:21:39;5.90;99.90
11035;DHT22;5571;48.110;-1.706;2023-12-07T06:24:05;5.90;99.90
11035;DHT22;5571;48.110;-1.706;2023-12-07T06:26:32;5.90;99.90
11035;DHT22;5571;48.110;-1.706;2023-12-07T06:28:58;5.90;99.90
11035;DHT22;5571;48.110;-1.706;2023-12-07T06:31:24;5.80;99.90
11035;DHT22;5571;48.110;-1.706;2023-12-07T06:33:49;5.80;99.90
11035;DHT22;5571;48.110;-1.706;2023-12-07T06:36:20;5.80;99.90
11035;DHT22;5571;48.110;-1.706;2023-12-07T06:38:46;5.80;99.90
11035;DHT22;5571;48.110;-1.706;2023-12-07T06:41:12;5.90;99.90
11035;DHT22;5571;48.110;-1.706;2023-12-07T06:43:38;5.80;99.90
11035;DHT22;5571;48.110;-1.706;2023-12-07T06:46:04;5.80;99.90
11035;DHT22;5571;48.110;-1.706;2023-12-07T06:48:31;5.80;99.90
11035;DHT22;5571;48.110;-1.706;2023-12-07T06:50:57;5.80;99.90
11035;DHT22;5571;48.110;-1.706;2023-12-07T06:53:22;5.80;99.90
11035;DHT22;5571;48.110;-1.706;2023-12-07T06:55:48;5.80;99.90
11035;DHT22;5571;48.110;-1.706;2023-12-07T06:58:13;5.80;99.90
11035;DHT22;5571;48.110;-1.706;2023-12-07T07:00:39;5.70;99.90
11035;DHT22;5571;48.110;-1.706;2023-12-07T07:03:05;5.70;99.90
11035;DHT22;5571;48.110;-1.706;2023-12-07T07:05:31;5.70;99.90
11035;DHT22;5571;48.110;-1.706;2023-12-07T07:07:57;5.70;99.90
11035;DHT22;5571;48.110;-1.706;2023-12-07T07:10:23;5.70;99.90
11035;DHT22;5571;48.110;-1.706;2023-12-07T07:12:49;5.60;99.90
11035;DHT22;5571;48.110;-1.706;2023-12-07T07:15:15;5.70;99.90
11035;DHT22;5571;48.110;-1.706;2023-12-07T07:17:41;5.70;99.90
11035;DHT22;5571;48.110;-1.706;2023-12-07T07:20:07;5.70;99.90
11035;DHT22;5571;48.110;-1.706;2023-12-07T07:22:33;5.70;99.90
11035;DHT22;5571;48.110;-1.706;2023-12-07T07:25:00;5.70;99.90
11035;DHT22;5571;48.110;-1.706;2023-12-07T07:27:25;5.60;99.90
11035;DHT22;5571;48.110;-1.706;2023-12-07T07:29:51;5.60;99.90
11035;DHT22;5571;48.110;-1.706;2023-12-07T07:32:17;5.60;99.90
11035;DHT22;5571;48.110;-1.706;2023-12-07T07:34:43;5.50;99.90
11035;DHT22;5571;48.110;-1.706;2023-12-07T07:37:08;5.60;99.90
11035;DHT22;5571;48.110;-1.706;2023-12-07T07:39:34;5.60;99.90
11035;DHT22;5571;48.110;-1.706;2023-12-07T07:42:00;5.60;99.90
11035;DHT22;5571;48.110;-1.706;2023-12-07T07:44:26;5.50;99.90
11035;DHT22;5571;48.110;-1.706;2023-12-07T07:46:51;5.50;99.90
11035;DHT22;5571;48.110;-1.706;2023-12-07T07:49:17;5.40;99.90
11035;DHT22;5571;48.110;-1.706;2023-12-07T07:51:42;5.50;99.90
11035;DHT22;5571;48.110;-1.706;2023-12-07T07:54:08;5.50;99.90
11035;DHT22;5571;48.110;-1.706;2023-12-07T07:56:33;5.50;99.90
11035;DHT22;5571;48.110;-1.706;2023-12-07T07:58:59;5.50;99.90
11035;DHT22;5571;48.110;-1.706;2023-12-07T08:01:26;5.50;99.90
11035;DHT22;5571;48.110;-1.706;2023-12-07T08:03:51;5.50;99.90
11035;DHT22;5571;48.110;-1.706;2023-12-07T08:06:17;5.50;99.90
11035;DHT22;5571;48.110;-1.706;2023-12-07T08:08:43;5.50;99.90
11035;DHT22;5571;48.110;-1.706;2023-12-07T08:11:08;5.50;99.90
11035;DHT22;5571;48.110;-1.706;2023-12-07T08:13:34;5.50;99.90
11035;DHT22;5571;48.110;-1.706;2023-12-07T08:16:00;5.50;99.90
11035;DHT22;5571;48.110;-1.706;2023-12-07T08:18:26;5.40;99.90
11035;DHT22;5571;48.110;-1.706;2023-12-07T08:20:51;5.40;99.90
11035;DHT22;5571;48.110;-1.706;2023-12-07T08:23:17;5.50;99.90
11035;DHT22;5571;48.110;-1.706;2023-12-07T08:25:43;5.50;99.90
11035;DHT22;5571;48.110;-1.706;2023-12-07T08:28:10;5.50;99.90
11035;DHT22;5571;48.110;-1.706;2023-12-07T08:30:36;5.50;99.90
11035;DHT22;5571;48.110;-1.706;2023-12-07T08:33:02;5.50;99.90
11035;DHT22;5571;48.110;-1.706;2023-12-07T08:35:27;5.50;99.90
11035;DHT22;5571;48.110;-1.706;2023-12-07T08:37:53;5.50;99.90
11035;DHT22;5571;48.110;-1.706;2023-12-07T08:40:19;5.50;99.90
11035;DHT22;5571;48.110;-1.706;2023-12-07T08:42:46;5.50;99.90
11035;DHT22;5571;48.110;-1.706;2023-12-07T08:45:12;5.50;99.90
11035;DHT22;5571;48.110;-1.706;2023-12-07T08:47:39;5.50;99.90
11035;DHT22;5571;48.110;-1.706;2023-12-07T08:50:05;5.50;99.90
11035;DHT22;5571;48.110;-1.706;2023-12-07T08:52:33;5.50;99.90
11035;DHT22;5571;48.110;-1.706;2023-12-07T08:54:59;5.50;99.90
11035;DHT22;5571;48.110;-1.706;2023-12-07T08:57:24;5.50;99.90
11035;DHT22;5571;48.110;-1.706;2023-12-07T08:59:50;5.50;99.90
11035;DHT22;5571;48.110;-1.706;2023-12-07T09:02:15;5.50;99.90
11035;DHT22;5571;48.110;-1.706;2023-12-07T09:04:41;5.40;99.90
11035;DHT22;5571;48.110;-1.706;2023-12-07T09:07:07;5.50;99.90
11035;DHT22;5571;48.110;-1.706;2023-12-07T09:09:32;5.50;99.90
11035;DHT22;5571;48.110;-1.706;2023-12-07T09:11:58;5.50;99.90
11035;DHT22;5571;48.110;-1.706;2023-12-07T09:14:23;5.50;99.90
11035;DHT22;5571;48.110;-1.706;2023-12-07T09:16:52;5.50;99.90
11035;DHT22;5571;48.110;-1.706;2023-12-07T09:19:17;5.60;99.90
11035;DHT22;5571;48.110;-1.706;2023-12-07T09:21:43;5.60;99.90
11035;DHT22;5571;48.110;-1.706;2023-12-07T09:24:09;5.50;99.90
11035;DHT22;5571;48.110;-1.706;2023-12-07T09:26:35;5.50;99.90
11035;DHT22;5571;48.110;-1.706;2023-12-07T09:29:01;5.60;99.90
11035;DHT22;5571;48.110;-1.706;2023-12-07T09:31:28;5.60;99.90
11035;DHT22;5571;48.110;-1.706;2023-12-07T09:33:53;5.50;99.90
11035;DHT22;5571;48.110;-1.706;2023-12-07T09:36:19;5.60;99.90
11035;DHT22;5571;48.110;-1.706;2023-12-07T09:38:46;5.50;99.90
11035;DHT22;5571;48.110;-1.706;2023-12-07T09:41:12;5.60;99.90
11035;DHT22;5571;48.110;-1.706;2023-12-07T09:43:38;5.60;99.90
11035;DHT22;5571;48.110;-1.706;2023-12-07T09:46:04;5.50;99.90
11035;DHT22;5571;48.110;-1.706;2023-12-07T09:48:31;5.50;99.90
11035;DHT22;5571;48.110;-1.706;2023-12-07T09:50:56;5.50;99.90
11035;DHT22;5571;48.110;-1.706;2023-12-07T09:53:24;5.60;99.90
11035;DHT22;5571;48.110;-1.706;2023-12-07T09:55:50;5.60;99.90
11035;DHT22;5571;48.110;-1.706;2023-12-07T09:58:16;5.60;99.90
11035;DHT22;5571;48.110;-1.706;2023-12-07T10:00:41;5.50;99.90
11035;DHT22;5571;48.110;-1.706;2023-12-07T10:03:08;5.50;99.90
11035;DHT22;5571;48.110;-1.706;2023-12-07T10:05:58;5.50;99.90
11035;DHT22;5571;48.110;-1.706;2023-12-07T10:08:26;5.50;99.90
11035;DHT22;5571;48.110;-1.706;2023-12-07T10:11:03;5.50;99.90
11035;DHT22;5571;48.110;-1.706;2023-12-07T10:13:30;5.50;99.90
11035;DHT22;5571;48.110;-1.706;2023-12-07T10:16:10;5.50;99.90
11035;DHT22;5571;48.110;-1.706;2023-12-07T10:18:36;5.50;99.90
11035;DHT22;5571;48.110;-1.706;2023-12-07T10:21:03;5.50;99.90
11035;DHT22;5571;48.110;-1.706;2023-12-07T10:23:28;5.50;99.90
11035;DHT22;5571;48.110;-1.706;2023-12-07T10:25:58;5.50;99.90
11035;DHT22;5571;48.110;-1.706;2023-12-07T10:28:23;5.60;99.90
11035;DHT22;5571;48.110;-1.706;2023-12-07T10:30:51;5.60;99.90
11035;DHT22;5571;48.110;-1.706;2023-12-07T10:33:19;5.60;99.90
11035;DHT22;5571;48.110;-1.706;2023-12-07T10:35:46;5.60;99.90
11035;DHT22;5571;48.110;-1.706;2023-12-07T10:38:12;5.60;99.90
11035;DHT22;5571;48.110;-1.706;2023-12-07T10:40:38;5.60;99.90
11035;DHT22;5571;48.110;-1.706;2023-12-07T10:43:07;5.70;99.90
11035;DHT22;5571;48.110;-1.706;2023-12-07T10:45:34;5.80;99.90
11035;DHT22;5571;48.110;-1.706;2023-12-07T10:48:08;5.70;99.90
11035;DHT22;5571;48.110;-1.706;2023-12-07T10:50:40;5.80;99.90
11035;DHT22;5571;48.110;-1.706;2023-12-07T10:53:11;5.80;99.90
11035;DHT22;5571;48.110;-1.706;2023-12-07T10:55:50;5.80;99.90
11035;DHT22;5571;48.110;-1.706;2023-12-07T10:58:18;5.90;99.90
11035;DHT22;5571;48.110;-1.706;2023-12-07T11:00:45;5.80;99.90
11035;DHT22;5571;48.110;-1.706;2023-12-07T11:03:15;5.80;99.90
11035;DHT22;5571;48.110;-1.706;2023-12-07T11:05:48;5.90;99.90
11035;DHT22;5571;48.110;-1.706;2023-12-07T11:08:38;5.90;99.90
11035;DHT22;5571;48.110;-1.706;2023-12-07T11:12:08;5.90;99.90
11035;DHT22;5571;48.110;-1.706;2023-12-07T11:14:15;5.90;99.90
11035;DHT22;5571;48.110;-1.706;2023-12-07T11:16:46;5.90;99.90
11035;DHT22;5571;48.110;-1.706;2023-12-07T11:22:03;5.90;99.90
11035;DHT22;5571;48.110;-1.706;2023-12-07T11:24:29;5.90;99.90
11035;DHT22;5571;48.110;-1.706;2023-12-07T11:26:56;6.00;99.90
11035;DHT22;5571;48.110;-1.706;2023-12-07T11:29:24;6.00;99.90
11035;DHT22;5571;48.110;-1.706;2023-12-07T11:31:51;6.00;99.90
11035;DHT22;5571;48.110;-1.706;2023-12-07T11:34:37;6.00;99.90
11035;DHT22;5571;48.110;-1.706;2023-12-07T11:37:03;6.00;99.90
11035;DHT22;5571;48.110;-1.706;2023-12-07T11:39:30;6.10;99.90
11035;DHT22;5571;48.110;-1.706;2023-12-07T11:42:06;6.10;99.90
11035;DHT22;5571;48.110;-1.706;2023-12-07T11:44:34;6.10;99.90
11035;DHT22;5571;48.110;-1.706;2023-12-07T11:47:00;6.20;99.90
11035;DHT22;5571;48.110;-1.706;2023-12-07T11:49:27;6.20;99.90
11035;DHT22;5571;48.110;-1.706;2023-12-07T11:51:53;6.20;99.90
11035;DHT22;5571;48.110;-1.706;2023-12-07T11:54:19;6.30;99.90
11035;DHT22;5571;48.110;-1.706;2023-12-07T11:56:44;6.30;99.90
11035;DHT22;5571;48.110;-1.706;2023-12-07T11:59:10;6.30;99.90
11035;DHT22;5571;48.110;-1.706;2023-12-07T12:01:36;6.30;99.90
11035;DHT22;5571;48.110;-1.706;2023-12-07T12:04:02;6.30;99.90
11035;DHT22;5571;48.110;-1.706;2023-12-07T12:06:29;6.30;99.90
11035;DHT22;5571;48.110;-1.706;2023-12-07T12:08:56;6.30;99.90
11035;DHT22;5571;48.110;-1.706;2023-12-07T12:11:21;6.30;99.90
11035;DHT22;5571;48.110;-1.706;2023-12-07T12:13:47;6.40;99.90
11035;DHT22;5571;48.110;-1.706;2023-12-07T12:16:13;6.40;99.90
11035;DHT22;5571;48.110;-1.706;2023-12-07T12:18:39;6.40;99.90
11035;DHT22;5571;48.110;-1.706;2023-12-07T12:21:07;6.50;99.90
11035;DHT22;5571;48.110;-1.706;2023-12-07T12:23:34;6.50;99.90
11035;DHT22;5571;48.110;-1.706;2023-12-07T12:26:00;6.50;99.90
11035;DHT22;5571;48.110;-1.706;2023-12-07T12:28:26;6.40;99.90
11035;DHT22;5571;48.110;-1.706;2023-12-07T12:30:52;6.50;99.90
11035;DHT22;5571;48.110;-1.706;2023-12-07T12:33:18;6.50;99.90
11035;DHT22;5571;48.110;-1.706;2023-12-07T12:35:43;6.40;99.90
11035;DHT22;5571;48.110;-1.706;2023-12-07T12:38:13;6.40;99.90
11035;DHT22;5571;48.110;-1.706;2023-12-07T12:40:39;6.40;99.90
11035;DHT22;5571;48.110;-1.706;2023-12-07T12:43:07;6.40;99.90
11035;DHT22;5571;48.110;-1.706;2023-12-07T12:45:33;6.30;99.90
11035;DHT22;5571;48.110;-1.706;2023-12-07T12:47:59;6.40;99.90
11035;DHT22;5571;48.110;-1.706;2023-12-07T12:50:38;6.40;99.90
11035;DHT22;5571;48.110;-1.706;2023-12-07T12:53:06;6.40;99.90
11035;DHT22;5571;48.110;-1.706;2023-12-07T12:55:35;6.40;99.90
11035;DHT22;5571;48.110;-1.706;2023-12-07T12:58:01;6.40;99.90
11035;DHT22;5571;48.110;-1.706;2023-12-07T13:00:29;6.40;99.90
11035;DHT22;5571;48.110;-1.706;2023-12-07T13:02:55;6.40;99.90
11035;DHT22;5571;48.110;-1.706;2023-12-07T13:05:21;6.40;99.90
11035;DHT22;5571;48.110;-1.706;2023-12-07T13:07:46;6.40;99.90
11035;DHT22;5571;48.110;-1.706;2023-12-07T13:10:16;6.40;99.90
11035;DHT22;5571;48.110;-1.706;2023-12-07T13:12:42;6.40;99.90
11035;DHT22;5571;48.110;-1.706;2023-12-07T13:15:09;6.40;99.90
11035;DHT22;5571;48.110;-1.706;2023-12-07T13:17:35;6.50;99.90
11035;DHT22;5571;48.110;-1.706;2023-12-07T13:20:00;6.50;99.90
11035;DHT22;5571;48.110;-1.706;2023-12-07T13:22:26;6.50;99.90
11035;DHT22;5571;48.110;-1.706;2023-12-07T13:24:51;6.50;99.90
11035;DHT22;5571;48.110;-1.706;2023-12-07T13:27:17;6.40;99.90
11035;DHT22;5571;48.110;-1.706;2023-12-07T13:29:43;6.40;99.90
11035;DHT22;5571;48.110;-1.706;2023-12-07T13:32:10;6.40;99.90
11035;DHT22;5571;48.110;-1.706;2023-12-07T13:34:35;6.50;99.90
11035;DHT22;5571;48.110;-1.706;2023-12-07T13:37:01;6.50;99.90
11035;DHT22;5571;48.110;-1.706;2023-12-07T13:39:26;6.50;99.90
11035;DHT22;5571;48.110;-1.706;2023-12-07T13:41:54;6.50;99.90
11035;DHT22;5571;48.110;-1.706;2023-12-07T13:44:19;6.50;99.90
11035;DHT22;5571;48.110;-1.706;2023-12-07T13:46:45;6.50;99.90
11035;DHT22;5571;48.110;-1.706;2023-12-07T13:49:11;6.50;99.90
11035;DHT22;5571;48.110;-1.706;2023-12-07T13:51:38;6.40;99.90
11035;DHT22;5571;48.110;-1.706;2023-12-07T13:54:03;6.40;99.90
11035;DHT22;5571;48.110;-1.706;2023-12-07T13:56:29;6.40;99.90
11035;DHT22;5571;48.110;-1.706;2023-12-07T13:58:55;6.40;99.90
11035;DHT22;5571;48.110;-1.706;2023-12-07T14:01:20;6.40;99.90
11035;DHT22;5571;48.110;-1.706;2023-12-07T14:03:47;6.40;99.90
11035;DHT22;5571;48.110;-1.706;2023-12-07T14:06:21;6.40;99.90
11035;DHT22;5571;48.110;-1.706;2023-12-07T14:08:48;6.40;99.90
11035;DHT22;5571;48.110;-1.706;2023-12-07T14:11:13;6.40;99.90
11035;DHT22;5571;48.110;-1.706;2023-12-07T14:13:39;6.40;99.90
11035;DHT22;5571;48.110;-1.706;2023-12-07T14:16:05;6.50;99.90
11035;DHT22;5571;48.110;-1.706;2023-12-07T14:18:34;6.50;99.90
11035;DHT22;5571;48.110;-1.706;2023-12-07T14:20:59;6.50;99.90
11035;DHT22;5571;48.110;-1.706;2023-12-07T14:23:25;6.50;99.90
11035;DHT22;5571;48.110;-1.706;2023-12-07T14:25:51;6.50;99.90
11035;DHT22;5571;48.110;-1.706;2023-12-07T14:28:18;6.40;99.90
11035;DHT22;5571;48.110;-1.706;2023-12-07T14:30:44;6.50;99.90
11035;DHT22;5571;48.110;-1.706;2023-12-07T14:33:09;6.50;99.90
11035;DHT22;5571;48.110;-1.706;2023-12-07T14:35:35;6.50;99.90
11035;DHT22;5571;48.110;-1.706;2023-12-07T14:38:01;6.50;99.90
11035;DHT22;5571;48.110;-1.706;2023-12-07T14:40:26;6.50;99.90
11035;DHT22;5571;48.110;-1.706;2023-12-07T14:42:52;6.50;99.90
11035;DHT22;5571;48.110;-1.706;2023-12-07T14:45:17;6.60;99.90
11035;DHT22;5571;48.110;-1.706;2023-12-07T14:47:45;6.50;99.90
11035;DHT22;5571;48.110;-1.706;2023-12-07T14:50:11;6.50;99.90
11035;DHT22;5571;48.110;-1.706;2023-12-07T14:52:37;6.50;99.90
11035;DHT22;5571;48.110;-1.706;2023-12-07T14:55:03;6.50;99.90
11035;DHT22;5571;48.110;-1.706;2023-12-07T14:57:30;6.50;99.90
11035;DHT22;5571;48.110;-1.706;2023-12-07T14:59:56;6.60;99.90
11035;DHT22;5571;48.110;-1.706;2023-12-07T15:02:24;6.50;99.90
11035;DHT22;5571;48.110;-1.706;2023-12-07T15:04:49;6.50;99.90
11035;DHT22;5571;48.110;-1.706;2023-12-07T15:07:15;6.50;99.90
11035;DHT22;5571;48.110;-1.706;2023-12-07T15:09:42;6.50;99.90
11035;DHT22;5571;48.110;-1.706;2023-12-07T15:12:08;6.50;99.90
11035;DHT22;5571;48.110;-1.706;2023-12-07T15:14:33;6.60;99.90
11035;DHT22;5571;48.110;-1.706;2023-12-07T15:16:59;6.60;99.90
11035;DHT22;5571;48.110;-1.706;2023-12-07T15:19:25;6.60;99.90
11035;DHT22;5571;48.110;-1.706;2023-12-07T15:21:50;6.60;99.90
11035;DHT22;5571;48.110;-1.706;2023-12-07T15:24:17;6.60;99.90
11035;DHT22;5571;48.110;-1.706;2023-12-07T15:26:43;6.60;99.90
11035;DHT22;5571;48.110;-1.706;2023-12-07T15:29:13;6.60;99.90
11035;DHT22;5571;48.110;-1.706;2023-12-07T15:31:38;6.60;99.90
11035;DHT22;5571;48.110;-1.706;2023-12-07T15:34:04;6.70;99.90
11035;DHT22;5571;48.110;-1.706;2023-12-07T15:36:30;6.60;99.90
11035;DHT22;5571;48.110;-1.706;2023-12-07T15:38:55;6.60;99.90
11035;DHT22;5571;48.110;-1.706;2023-12-07T15:41:22;6.60;99.90
11035;DHT22;5571;48.110;-1.706;2023-12-07T15:43:47;6.60;99.90
11035;DHT22;5571;48.110;-1.706;2023-12-07T15:46:13;6.70;99.90